^^
Station Historical Data
 
Daily Summary for February 08, 2016 Units:  English    Metric   Both
« Previous Day
Next Day »
Daily Weekly Monthly Yearly Custom
  Current: High: Low: Average:
Temperature: 61.9 °F 61.9 °F 37.8 °F 46.5 °F
Dew Point: 44.6 °F 44.8 °F 36.0 °F 38.8 °F
Humidity: 53% 94% 45% 77%
Wind Speed: 11.5mph 19.6mph 0.0mph 3.6mph
Wind Gust: 11.5mph 19.6mph - -
WindSW - - WSW
Pressure: 29.94 in 30.07 in 29.94 in -
Precipitation: 0.00 in      
Historical Graphs
 
 
Tabular Data for February 08, 2016
Time Temperature Dew Point Pressure Wind Wind Speed Wind Gust Humidity Rainfall Rate (Hourly) solar Conditions
00:03 42.3 °F 38.4 °F 30.06 in Calm   0.1 mph 86% 0.00 in 0.0 W/m2 RA
00:08 42.2 °F 38.6 °F 30.07 in WSW 2.3 mph   87% 0.00 in 0.0 W/m2 RA
00:13 42.3 °F 38.7 °F 30.06 in WSW 1.2 mph 1.2 mph 87% 0.00 in 0.0 W/m2 CLR
00:18 42.4 °F 38.8 °F 30.06 in West 1.2 mph 1.2 mph 87% 0.00 in 0.0 W/m2 CLR
00:28 42.1 °F 38.8 °F 30.05 in WSW 1.2 mph 1.2 mph 88% 0.00 in 0.0 W/m2 CLR
00:33 42.1 °F 38.8 °F 30.05 in SW 1.2 mph 1.2 mph 88% 0.00 in 0.0 W/m2 CLR
00:38 41.9 °F 38.3 °F 30.05 in Calm     87% 0.00 in 0.0 W/m2 CLR
00:43 41.7 °F 38.4 °F 30.05 in Calm     88% 0.00 in 0.0 W/m2 CLR
00:48 41.6 °F 38.3 °F 30.04 in WSW 1.2 mph   88% 0.00 in 0.0 W/m2 CLR
00:53 41.6 °F 38.3 °F 30.04 in Calm   0.1 mph 88% 0.00 in 0.0 W/m2 CLR
01:03 41.2 °F 38.2 °F 30.04 in Calm     89% 0.00 in 0.0 W/m2 CLR
01:08 40.9 °F 37.9 °F 30.04 in Calm     89% 0.00 in 0.0 W/m2 CLR
01:13 40.9 °F 38.2 °F 30.04 in SW 1.2 mph   90% 0.00 in 0.0 W/m2 CLR
01:18 41.1 °F 38.4 °F 30.04 in SW 1.2 mph   90% 0.00 in 0.0 W/m2 CLR
01:23 40.9 °F 37.9 °F 30.04 in Calm     89% 0.00 in 0.0 W/m2 CLR
01:28 40.7 °F 38.0 °F 30.04 in Calm   0.1 mph 90% 0.00 in 0.0 W/m2 CLR
01:33 40.7 °F 38.0 °F 30.03 in Calm     90% 0.00 in 0.0 W/m2 CLR
01:38 40.6 °F 38.2 °F 30.03 in SW 1.2 mph   91% 0.00 in 0.0 W/m2 CLR
01:43 40.6 °F 38.2 °F 30.03 in Calm     91% 0.00 in 0.0 W/m2 CLR
01:48 40.6 °F 38.5 °F 30.04 in SW 1.2 mph 1.2 mph 92% 0.00 in 0.0 W/m2 CLR
01:58 40.4 °F 38.3 °F 30.04 in Calm     92% 0.00 in 0.0 W/m2 CLR
02:03 40.1 °F 38.0 °F 30.03 in Calm     92% 0.00 in 0.0 W/m2 CLR
02:08 40.1 °F 38.0 °F 30.03 in Calm     92% 0.00 in 0.0 W/m2 CLR
02:13 39.9 °F 37.8 °F 30.03 in Calm     92% 0.00 in 0.0 W/m2 CLR
02:18 39.7 °F 37.6 °F 30.03 in Calm     92% 0.00 in 0.0 W/m2 CLR
02:28 39.7 °F 37.8 °F 30.02 in Calm     93% 0.00 in 0.0 W/m2 CLR
02:33 39.7 °F 37.8 °F 30.03 in Calm     93% 0.00 in 0.0 W/m2 CLR
02:38 39.8 °F 37.9 °F 30.03 in Calm     93% 0.00 in 0.0 W/m2 CLR
02:43 39.7 °F 37.6 °F 30.03 in Calm     92% 0.00 in 0.0 W/m2 CLR
02:48 39.6 °F 37.5 °F 30.02 in Calm     92% 0.00 in 0.0 W/m2 CLR
02:53 39.5 °F 37.4 °F 30.02 in SW 1.2 mph   92% 0.00 in 0.0 W/m2 CLR
02:58 39.4 °F 37.3 °F 30.02 in Calm     92% 0.00 in 0.0 W/m2 CLR
03:03 39.2 °F 37.1 °F 30.02 in Calm     92% 0.00 in 0.0 W/m2 CLR
03:08 39.0 °F 37.1 °F 30.02 in Calm     93% 0.00 in 0.0 W/m2 CLR
03:13 39.1 °F 37.2 °F 30.02 in SW 1.2 mph 1.2 mph 93% 0.00 in 0.0 W/m2 CLR
03:18 39.5 °F 37.4 °F 30.02 in Calm     92% 0.00 in 0.0 W/m2 CLR
03:23 39.5 °F 37.1 °F 30.02 in Calm     91% 0.00 in 0.0 W/m2 CLR
03:28 39.6 °F 37.2 °F 30.02 in Calm     91% 0.00 in 0.0 W/m2 CLR
03:33 39.4 °F 37.0 °F 30.02 in Calm     91% 0.00 in 0.0 W/m2 CLR
03:38 39.0 °F 36.3 °F 30.01 in Calm     90% 0.00 in 0.0 W/m2 CLR
03:43 38.8 °F 36.4 °F 30.02 in SW 1.2 mph 1.2 mph 91% 0.00 in 0.0 W/m2 CLR
03:48 39.1 °F 36.7 °F 30.02 in Calm     91% 0.00 in 0.0 W/m2 CLR
03:53 39.1 °F 36.7 °F 30.01 in Calm     91% 0.00 in 0.0 W/m2 CLR
03:58 39.0 °F 36.3 °F 30.01 in Calm     90% 0.00 in 0.0 W/m2 CLR
04:03 38.9 °F 36.5 °F 30.01 in Calm     91% 0.00 in 0.0 W/m2 CLR
04:08 38.8 °F 36.4 °F 30.01 in Calm     91% 0.00 in 0.0 W/m2 CLR
04:13 38.9 °F 36.5 °F 30.01 in Calm   0.1 mph 91% 0.00 in 0.0 W/m2 CLR
04:18 39.1 °F 36.7 °F 30.01 in SW 1.0 mph 1.0 mph 91% 0.00 in 0.0 W/m2 CLR
04:23 39.3 °F 36.9 °F 30.01 in SW 1.2 mph 1.2 mph 91% 0.00 in 0.0 W/m2 CLR
04:28 39.4 °F 37.0 °F 30.01 in Calm     91% 0.00 in 0.0 W/m2 CLR
04:33 39.5 °F 37.4 °F 30.01 in Calm     92% 0.00 in 0.0 W/m2 CLR
04:38 39.4 °F 37.3 °F 30.01 in Calm     92% 0.00 in 0.0 W/m2 CLR
04:43 39.4 °F 37.5 °F 30.01 in Calm     93% 0.00 in 0.0 W/m2 CLR
04:48 39.3 °F 37.4 °F 30.01 in Calm     93% 0.00 in 0.0 W/m2 CLR
04:58 38.9 °F 37.0 °F 30.01 in Calm     93% 0.00 in 0.0 W/m2 CLR
05:03 39.0 °F 37.1 °F 30.01 in Calm   0.1 mph 93% 0.00 in 0.0 W/m2 CLR
05:08 39.0 °F 37.4 °F 30.01 in Calm     94% 0.00 in 0.0 W/m2 CLR
05:13 39.1 °F 37.5 °F 30.01 in Calm     94% 0.00 in 0.0 W/m2 CLR
05:18 39.1 °F 37.5 °F 30.01 in Calm   0.1 mph 94% 0.00 in 0.0 W/m2 CLR
05:23 39.2 °F 37.6 °F 30.02 in Calm     94% 0.00 in 0.0 W/m2 CLR
05:28 39.0 °F 37.1 °F 30.01 in WSW 1.2 mph 1.2 mph 93% 0.00 in 0.0 W/m2 CLR
05:33 38.8 °F 36.9 °F 30.02 in Calm     93% 0.00 in 0.0 W/m2 CLR
05:38 38.5 °F 36.7 °F 30.02 in Calm     93% 0.00 in 0.0 W/m2 CLR
05:43 38.1 °F 36.0 °F 30.02 in Calm     92% 0.00 in 0.0 W/m2 CLR
05:48 37.8 °F 36.0 °F 30.02 in Calm     93% 0.00 in 0.0 W/m2 CLR
05:53 37.9 °F 36.3 °F 30.02 in Calm   0.1 mph 94% 0.00 in 0.0 W/m2 CLR
05:58 38.0 °F 36.4 °F 30.02 in SW 1.0 mph 1.0 mph 94% 0.00 in 0.0 W/m2 CLR
06:03 38.3 °F 36.7 °F 30.02 in Calm     94% 0.00 in 0.0 W/m2 CLR
06:08 38.6 °F 37.0 °F 30.02 in West 1.2 mph   94% 0.00 in 0.0 W/m2 CLR
06:13 38.8 °F 36.9 °F 30.03 in Calm     93% 0.00 in 0.0 W/m2 CLR
06:18 39.0 °F 37.1 °F 30.03 in Calm   0.1 mph 93% 0.00 in 0.0 W/m2 CLR
06:23 39.2 °F 37.3 °F 30.03 in SW 1.2 mph   93% 0.00 in 0.0 W/m2 CLR
06:28 39.4 °F 37.3 °F 30.03 in SW 1.2 mph 1.2 mph 92% 0.00 in 0.0 W/m2 CLR
06:33 39.3 °F 37.2 °F 30.03 in Calm   0.1 mph 92% 0.00 in 0.0 W/m2 CLR
06:38 39.3 °F 37.2 °F 30.04 in SW 1.2 mph   92% 0.00 in 0.0 W/m2 CLR
06:43 39.1 °F 37.0 °F 30.04 in SW 1.2 mph   92% 0.00 in 0.0 W/m2 CLR
06:48 39.2 °F 37.1 °F 30.04 in Calm     92% 0.00 in 0.0 W/m2 CLR
06:53 39.2 °F 37.1 °F 30.04 in WSW 1.2 mph   92% 0.00 in 0.0 W/m2 CLR
06:58 39.2 °F 37.1 °F 30.04 in Calm   0.1 mph 92% 0.00 in 0.0 W/m2 CLR
07:03 39.3 °F 37.2 °F 30.03 in SW 1.2 mph 1.2 mph 92% 0.00 in 0.0 W/m2 CLR
07:08 39.4 °F 37.3 °F 30.03 in WSW 2.3 mph 2.3 mph 92% 0.00 in 0.0 W/m2 CLR
07:13 39.7 °F 37.6 °F 30.04 in SW 1.2 mph 1.2 mph 92% 0.00 in 0.0 W/m2 CLR
07:18 40.1 °F 37.7 °F 30.04 in WSW 1.2 mph 1.2 mph 91% 0.00 in 0.0 W/m2 CLR
07:28 40.4 °F 37.7 °F 30.04 in SW 1.2 mph   90% 0.00 in 0.0 W/m2 CLR
07:33 40.6 °F 37.9 °F 30.05 in WSW 1.2 mph 1.2 mph 90% 0.00 in 0.0 W/m2 CLR
07:38 40.9 °F 38.2 °F 30.04 in WSW 1.2 mph 1.2 mph 90% 0.00 in 0.0 W/m2 CLR
07:43 41.3 °F 38.3 °F 30.04 in SW 2.3 mph 2.3 mph 89% 0.00 in 0.0 W/m2 CLR
07:48 41.7 °F 38.4 °F 30.04 in WSW 1.2 mph 1.2 mph 88% 0.00 in 0.0 W/m2 CLR
07:53 42.0 °F 38.7 °F 30.04 in West 3.5 mph 3.5 mph 88% 0.00 in 0.0 W/m2 CLR
07:58 42.6 °F 39.0 °F 30.05 in West 2.3 mph 2.3 mph 87% 0.00 in 0.0 W/m2 CLR
08:03 43.2 °F 39.3 °F 30.05 in WSW 3.5 mph 3.5 mph 86% 0.00 in 0.0 W/m2 CLR
08:08 43.9 °F 39.7 °F 30.05 in WSW 3.5 mph 3.5 mph 85% 0.00 in 0.0 W/m2 CLR
08:13 44.5 °F 40.0 °F 30.05 in WSW 3.5 mph 3.5 mph 84% 0.00 in 0.0 W/m2 CLR
08:18 45.0 °F 40.1 °F 30.05 in West 3.5 mph 3.5 mph 83% 0.00 in 0.0 W/m2 CLR
08:23 45.5 °F 40.3 °F 30.05 in SW 2.3 mph 2.3 mph 82% 0.00 in 0.0 W/m2 CLR
08:33 46.3 °F 40.8 °F 30.05 in West 3.5 mph 3.5 mph 81% 0.00 in 0.0 W/m2 CLR
08:38 46.8 °F 41.0 °F 30.05 in West 4.6 mph 4.6 mph 80% 0.00 in 0.0 W/m2 CLR
08:48 47.7 °F 41.5 °F 30.05 in WSW 3.5 mph 3.5 mph 79% 0.00 in 0.0 W/m2 CLR
08:53 48.2 °F 42.0 °F 30.05 in West 4.0 mph 4.0 mph 79% 0.00 in 0.0 W/m2 CLR
08:58 48.7 °F 42.5 °F 30.06 in SW 3.5 mph 3.5 mph 79% 0.00 in 0.0 W/m2 CLR
09:08 50.0 °F 42.7 °F 30.06 in WNW 5.8 mph 5.8 mph 76% 0.00 in 0.0 W/m2 CLR
09:13 50.5 °F 42.9 °F 30.06 in West 3.5 mph 3.5 mph 75% 0.00 in 0.0 W/m2 CLR
09:18 51.0 °F 42.6 °F 30.06 in West 7.0 mph 7.0 mph 73% 0.00 in 0.0 W/m2 CLR
09:23 51.5 °F 41.7 °F 30.06 in West 4.6 mph 4.6 mph 69% 0.00 in 0.0 W/m2 CLR
09:28 51.8 °F 40.8 °F 30.06 in West 5.8 mph 5.8 mph 66% 0.00 in 0.0 W/m2 CLR
09:33 52.2 °F 41.2 °F 30.06 in West 5.8 mph 5.8 mph 66% 0.00 in 0.0 W/m2 CLR
09:38 52.7 °F 41.3 °F 30.06 in West 5.8 mph 5.8 mph 65% 0.00 in 0.0 W/m2 CLR
09:43 53.2 °F 40.9 °F 30.06 in West 9.2 mph 9.2 mph 63% 0.00 in 0.0 W/m2 CLR
09:48 53.2 °F 40.5 °F 30.06 in WNW 6.9 mph 6.9 mph 62% 0.00 in 0.0 W/m2 CLR
09:53 53.6 °F 40.5 °F 30.06 in West 5.8 mph 5.8 mph 61% 0.00 in 0.0 W/m2 CLR
09:58 54.0 °F 41.3 °F 30.06 in WNW 3.5 mph 3.5 mph 62% 0.00 in 0.0 W/m2 CLR
10:03 54.4 °F 40.8 °F 30.06 in SW 5.8 mph 5.8 mph 60% 0.00 in 0.0 W/m2 CLR
10:08 54.8 °F 41.6 °F 30.06 in West 3.5 mph 3.5 mph 61% 0.00 in 0.0 W/m2 CLR
10:13 55.1 °F 41.0 °F 30.06 in SW 4.6 mph 4.6 mph 59% 0.00 in 0.0 W/m2 CLR
10:18 55.5 °F 39.1 °F 30.06 in NNE 8.1 mph 8.1 mph 54% 0.00 in 0.0 W/m2 CLR
10:23 55.7 °F 38.8 °F 30.06 in West 4.6 mph 4.6 mph 53% 0.00 in 0.0 W/m2 CLR
10:28 56.1 °F 39.2 °F 30.06 in WSW 3.5 mph 3.5 mph 53% 0.00 in 0.0 W/m2 CLR
10:33 56.2 °F 38.8 °F 30.06 in WSW 4.6 mph 4.6 mph 52% 0.00 in 0.0 W/m2 CLR
10:38 56.3 °F 38.4 °F 30.06 in WSW 8.1 mph 8.1 mph 51% 0.00 in 0.0 W/m2 CLR
10:43 57.0 °F 38.5 °F 30.05 in West 4.6 mph 4.6 mph 50% 0.00 in 0.0 W/m2 CLR
10:48 57.1 °F 37.0 °F 30.05 in WSW 6.9 mph 6.9 mph 47% 0.00 in 0.0 W/m2 CLR
10:53 57.5 °F 36.9 °F 30.05 in WSW 10.4 mph 10.4 mph 46% 0.00 in 0.0 W/m2 CLR
11:03 57.8 °F 37.1 °F 30.05 in WSW 11.0 mph 11.0 mph 46% 0.00 in 0.0 W/m2 CLR
11:08 58.1 °F 37.4 °F 30.05 in SW 6.9 mph 6.9 mph 46% 0.00 in 0.0 W/m2 CLR
11:13 58.8 °F 38.6 °F 30.05 in WNW 6.0 mph 6.0 mph 47% 0.00 in 0.0 W/m2 CLR
11:18 58.8 °F 38.1 °F 30.04 in West 8.1 mph 8.1 mph 46% 0.00 in 0.0 W/m2 CLR
11:23 58.8 °F 39.1 °F 30.04 in SW 7.0 mph 7.0 mph 48% 0.00 in 0.0 W/m2 CLR
11:28 59.1 °F 37.8 °F 30.03 in WSW 13.8 mph 13.8 mph 45% 0.00 in 0.0 W/m2 CLR
11:33 59.1 °F 38.3 °F 30.03 in West 11.5 mph 11.5 mph 46% 0.00 in 0.0 W/m2 CLR
11:38 59.2 °F 38.4 °F 30.03 in West 9.2 mph 9.2 mph 46% 0.00 in 0.0 W/m2 CLR
11:43 59.5 °F 39.2 °F 30.02 in WNW 7.0 mph 7.0 mph 47% 0.00 in 0.0 W/m2 CLR
11:48 59.6 °F 38.2 °F 30.02 in SSW 7.0 mph 7.0 mph 45% 0.00 in 0.0 W/m2 CLR
11:53 59.7 °F 38.9 °F 30.02 in West 11.5 mph 11.5 mph 46% 0.00 in 0.0 W/m2 CLR
11:58 59.9 °F 39.6 °F 30.01 in WSW 11.5 mph 11.5 mph 47% 0.00 in 0.0 W/m2 CLR
12:03 60.2 °F 39.9 °F 30.01 in WSW 8.0 mph 8.0 mph 47% 0.00 in 0.0 W/m2 CLR
12:08 60.2 °F 39.3 °F 30.00 in SW 9.2 mph 9.2 mph 46% 0.00 in 0.0 W/m2 CLR
12:13 60.3 °F 40.0 °F 30.00 in West 11.5 mph 11.5 mph 47% 0.00 in 0.0 W/m2 CLR
12:18 60.5 °F 40.2 °F 30.00 in West 15.0 mph 15.0 mph 47% 0.00 in 0.0 W/m2 CLR
12:23 60.5 °F 40.2 °F 30.00 in WSW 11.5 mph 11.5 mph 47% 0.00 in 0.0 W/m2 CLR
12:28 60.5 °F 41.2 °F 30.00 in WSW 10.4 mph 10.4 mph 49% 0.00 in 0.0 W/m2 CLR
12:33 60.3 °F 40.5 °F 29.99 in SSW 17.3 mph 17.3 mph 48% 0.00 in 0.0 W/m2 CLR
12:38 60.6 °F 42.4 °F 29.99 in West 11.5 mph 11.5 mph 51% 0.00 in 0.0 W/m2 CLR
12:43 60.6 °F 41.8 °F 29.99 in West 12.7 mph 12.7 mph 50% 0.00 in 0.0 W/m2 CLR
12:48 61.0 °F 42.7 °F 29.98 in WSW 8.1 mph 8.1 mph 51% 0.00 in 0.0 W/m2 CLR
12:53 61.7 °F 42.9 °F 29.98 in West 19.6 mph 19.6 mph 50% 0.00 in 0.0 W/m2 CLR
12:58 61.7 °F 43.4 °F 29.98 in SW 8.1 mph 8.1 mph 51% 0.00 in 0.0 W/m2 CLR
13:03 61.6 °F 42.8 °F 29.98 in West 11.5 mph 11.5 mph 50% 0.00 in 0.0 W/m2 CLR
13:08 61.5 °F 43.2 °F 29.97 in WSW 12.7 mph 12.7 mph 51% 0.00 in 0.0 W/m2 CLR
13:13 61.7 °F 43.9 °F 29.97 in WSW 13.8 mph 13.8 mph 52% 0.00 in 0.0 W/m2 CLR
13:18 61.8 °F 44.0 °F 29.97 in SW 10.0 mph 10.0 mph 52% 0.00 in 0.0 W/m2 CLR
13:23 61.7 °F 43.9 °F 29.97 in SW 8.1 mph 8.1 mph 52% 0.00 in 0.0 W/m2 CLR
13:28 61.3 °F 44.0 °F 29.96 in West 11.5 mph 11.5 mph 53% 0.00 in 0.0 W/m2 CLR
13:33 61.6 °F 44.8 °F 29.95 in SW 11.5 mph 11.5 mph 54% 0.00 in 0.0 W/m2 CLR
13:38 61.9 °F 44.6 °F 29.94 in SW 11.5 mph 11.5 mph 53% 0.00 in 0.0 W/m2 CLR
Lake Mary, FL, USA
Compliments of Weather Underground